createdAt,value
2022-08-03T00:00:31.914Z,1021.24
2022-08-03T00:01:32.798Z,1021.24
2022-08-03T00:02:33.714Z,1021.24
2022-08-03T00:03:34.566Z,1021.24
2022-08-03T00:04:35.447Z,1021.25
2022-08-03T00:05:36.329Z,1021.24
2022-08-03T00:06:37.455Z,1021.26
2022-08-03T00:07:37.766Z,1021.26
2022-08-03T00:08:40.373Z,1021.26
2022-08-03T00:09:39.270Z,1021.29
2022-08-03T00:10:40.152Z,1021.22
2022-08-03T00:11:41.040Z,1021.21
2022-08-03T00:12:41.909Z,1021.18
2022-08-03T00:13:42.793Z,1021.19
2022-08-03T00:14:43.674Z,1021.20
2022-08-03T00:15:44.486Z,1021.19
2022-08-03T00:16:45.370Z,1021.19
2022-08-03T00:17:52.375Z,1021.20
2022-08-03T00:18:48.020Z,1021.22
2022-08-03T00:19:47.912Z,1021.22
2022-08-03T00:20:48.786Z,1021.23
2022-08-03T00:21:49.674Z,1021.21
2022-08-03T00:22:50.541Z,1021.24
2022-08-03T00:23:52.962Z,1021.22
2022-08-03T00:24:52.342Z,1021.21
2022-08-03T00:25:53.231Z,1021.21
2022-08-03T00:26:54.137Z,1021.21
2022-08-03T00:27:55.037Z,1021.20
2022-08-03T00:28:55.785Z,1021.20
2022-08-03T00:29:59.547Z,1021.19
2022-08-03T00:30:57.218Z,1021.17
2022-08-03T00:32:00.206Z,1021.17
2022-08-03T00:32:58.864Z,1021.17
2022-08-03T00:34:03.519Z,1021.16
2022-08-03T00:35:00.503Z,1021.15
2022-08-03T00:36:02.268Z,1021.15
2022-08-03T00:37:02.142Z,1021.15
2022-08-03T00:38:03.024Z,1021.16
2022-08-03T00:39:03.897Z,1021.18
2022-08-03T00:40:04.790Z,1021.17
2022-08-03T00:41:05.405Z,1021.14
2022-08-03T00:42:06.285Z,1021.14
2022-08-03T00:43:07.181Z,1021.11
2022-08-03T00:44:08.079Z,1021.10
2022-08-03T00:45:08.984Z,1021.09
2022-08-03T00:46:09.885Z,1021.06
2022-08-03T00:47:10.760Z,1021.05
2022-08-03T00:48:30.139Z,1021.02
2022-08-03T00:49:13.492Z,1021.02
2022-08-03T00:50:13.356Z,1021.01
2022-08-03T00:51:14.228Z,1020.99
2022-08-03T00:52:15.109Z,1021.01
2022-08-03T00:53:15.985Z,1021.01
2022-08-03T00:54:16.777Z,1021.01
2022-08-03T00:55:17.672Z,1021.00
2022-08-03T00:56:18.551Z,1021.01
2022-08-03T00:57:19.424Z,1021.01
2022-08-03T00:58:20.308Z,1021.03
2022-08-03T00:59:21.192Z,1021.02
2022-08-03T01:00:22.856Z,1021.05
2022-08-03T01:01:22.776Z,1021.01
2022-08-03T01:02:23.649Z,1021.02
2022-08-03T01:03:24.537Z,1021.00
2022-08-03T01:04:25.431Z,1021.02
2022-08-03T01:05:26.347Z,1021.01
2022-08-03T01:06:27.233Z,1021.01
2022-08-03T01:07:28.112Z,1021.03
2022-08-03T01:08:29.004Z,1021.04
2022-08-03T01:09:29.867Z,1021.04
2022-08-03T01:10:31.010Z,1021.04
2022-08-03T01:11:31.431Z,1021.02
2022-08-03T01:12:32.312Z,1021.02
2022-08-03T01:14:01.391Z,1020.99
2022-08-03T01:14:34.965Z,1020.96
2022-08-03T01:15:34.846Z,1020.95
2022-08-03T01:16:37.056Z,1020.95
2022-08-03T01:17:36.552Z,1020.94
2022-08-03T01:18:37.434Z,1020.95
2022-08-03T01:19:38.319Z,1020.96
2022-08-03T01:20:39.211Z,1020.93
2022-08-03T01:21:40.084Z,1020.94
2022-08-03T01:22:40.973Z,1020.93
2022-08-03T01:23:41.851Z,1020.95
2022-08-03T01:24:42.746Z,1020.94
2022-08-03T01:25:43.647Z,1020.92
2022-08-03T01:26:44.529Z,1020.92
2022-08-03T01:27:45.409Z,1020.93
2022-08-03T01:28:46.283Z,1020.95
2022-08-03T01:29:47.167Z,1020.93
2022-08-03T01:30:48.047Z,1020.92
2022-08-03T01:32:58.042Z,1020.95
2022-08-03T01:32:58.207Z,1020.94
2022-08-03T01:33:51.471Z,1020.92
2022-08-03T01:34:51.344Z,1020.93
2022-08-03T01:35:52.243Z,1020.93
2022-08-03T01:36:53.114Z,1020.94
2022-08-03T01:37:53.996Z,1020.93
2022-08-03T01:38:54.882Z,1020.92
2022-08-03T01:39:55.763Z,1020.89
2022-08-03T01:40:56.747Z,1020.89
2022-08-03T01:41:57.626Z,1020.89
2022-08-03T01:42:58.508Z,1020.89
2022-08-03T01:44:30.250Z,1020.88
2022-08-03T01:45:01.160Z,1020.88
2022-08-03T01:46:01.065Z,1020.87
2022-08-03T01:47:01.941Z,1020.86
2022-08-03T01:48:02.847Z,1020.85
2022-08-03T01:49:09.236Z,1020.84
2022-08-03T01:50:05.482Z,1020.82
2022-08-03T01:51:05.385Z,1020.81
2022-08-03T01:52:06.268Z,1020.80
2022-08-03T01:53:07.139Z,1020.78
2022-08-03T01:54:08.021Z,1020.80
2022-08-03T01:55:08.895Z,1020.82
2022-08-03T01:56:09.788Z,1020.83
2022-08-03T01:57:10.671Z,1020.83
2022-08-03T01:58:11.542Z,1020.83
2022-08-03T01:59:12.425Z,1020.82
2022-08-03T02:00:13.306Z,1020.83
2022-08-03T02:01:14.219Z,1020.80
2022-08-03T02:02:32.955Z,1020.80
2022-08-03T02:03:16.855Z,1020.81
2022-08-03T02:04:16.734Z,1020.82
2022-08-03T02:05:17.607Z,1020.84
2022-08-03T02:07:00.843Z,1020.85
2022-08-03T02:07:20.278Z,1020.81
2022-08-03T02:08:20.171Z,1020.83
2022-08-03T02:09:21.064Z,1020.82
2022-08-03T02:10:35.378Z,1020.80
2022-08-03T02:11:23.720Z,1020.81
2022-08-03T02:12:23.601Z,1020.80
2022-08-03T02:13:24.474Z,1020.78
2022-08-03T02:14:25.357Z,1020.79
2022-08-03T02:15:26.242Z,1020.76
2022-08-03T02:16:27.135Z,1020.76
2022-08-03T02:17:38.710Z,1020.78
2022-08-03T02:18:29.784Z,1020.77
2022-08-03T02:19:35.241Z,1020.74
2022-08-03T02:20:31.432Z,1020.75
2022-08-03T02:21:56.448Z,1020.71
2022-08-03T02:22:33.094Z,1020.74
2022-08-03T02:23:32.976Z,1020.76
2022-08-03T02:24:33.478Z,1020.75
2022-08-03T02:25:34.362Z,1020.74
2022-08-03T02:26:35.254Z,1020.75
2022-08-03T02:27:38.423Z,1020.76
2022-08-03T02:28:37.907Z,1020.74
2022-08-03T02:29:39.103Z,1020.73
2022-08-03T02:30:38.610Z,1020.73
2022-08-03T02:31:39.483Z,1020.74
2022-08-03T02:32:40.372Z,1020.74
2022-08-03T02:33:41.263Z,1020.73
2022-08-03T02:34:42.157Z,1020.73
2022-08-03T02:35:43.016Z,1020.72
2022-08-03T02:36:43.914Z,1020.71
2022-08-03T02:37:45.025Z,1020.73
2022-08-03T02:38:45.314Z,1020.74
2022-08-03T02:39:46.198Z,1020.73
2022-08-03T02:40:47.080Z,1020.77
2022-08-03T02:41:47.976Z,1020.75
2022-08-03T02:42:48.861Z,1020.75
2022-08-03T02:44:06.696Z,1020.76
2022-08-03T02:44:51.512Z,1020.76
2022-08-03T02:45:51.394Z,1020.73
2022-08-03T02:46:52.290Z,1020.76
2022-08-03T02:47:54.870Z,1020.74
2022-08-03T02:48:53.828Z,1020.74
2022-08-03T02:49:54.724Z,1020.70
2022-08-03T02:50:55.569Z,1020.65
2022-08-03T02:51:56.199Z,1020.69
2022-08-03T02:52:57.082Z,1020.69
2022-08-03T02:53:57.960Z,1020.68
2022-08-03T02:54:58.837Z,1020.67
2022-08-03T02:55:59.722Z,1020.68
2022-08-03T02:57:00.618Z,1020.71
2022-08-03T02:58:01.822Z,1020.69
2022-08-03T02:59:02.132Z,1020.65
2022-08-03T03:00:03.018Z,1020.68
2022-08-03T03:01:03.986Z,1020.66
2022-08-03T03:02:04.843Z,1020.68
2022-08-03T03:03:05.726Z,1020.68
2022-08-03T03:04:06.471Z,1020.69
2022-08-03T03:05:52.107Z,1020.67
2022-08-03T03:06:09.050Z,1020.66
2022-08-03T03:07:08.943Z,1020.64
2022-08-03T03:08:17.905Z,1020.64
2022-08-03T03:09:11.393Z,1020.62
2022-08-03T03:10:11.276Z,1020.62
2022-08-03T03:11:12.162Z,1020.63
2022-08-03T03:12:13.285Z,1020.64
2022-08-03T03:13:13.726Z,1020.63
2022-08-03T03:14:14.611Z,1020.63
2022-08-03T03:15:15.488Z,1020.59
2022-08-03T03:16:16.363Z,1020.59
2022-08-03T03:17:17.259Z,1020.59
2022-08-03T03:18:22.278Z,1020.56
2022-08-03T03:19:18.985Z,1020.57
2022-08-03T03:20:29.155Z,1020.60
2022-08-03T03:21:21.633Z,1020.61
2022-08-03T03:22:21.528Z,1020.61
2022-08-03T03:23:22.412Z,1020.60
2022-08-03T03:24:23.284Z,1020.59
2022-08-03T03:25:24.167Z,1020.61
2022-08-03T03:26:25.052Z,1020.60
2022-08-03T03:27:25.941Z,1020.61
2022-08-03T03:28:26.503Z,1020.63
2022-08-03T03:29:27.393Z,1020.66
2022-08-03T03:30:28.270Z,1020.69
2022-08-03T03:31:29.155Z,1020.68
2022-08-03T03:32:30.045Z,1020.69
2022-08-03T03:33:30.930Z,1020.70
2022-08-03T03:34:31.756Z,1020.70
2022-08-03T03:35:38.891Z,1020.68
2022-08-03T03:36:34.538Z,1020.70
2022-08-03T03:37:34.389Z,1020.70
2022-08-03T03:38:35.220Z,1020.69
2022-08-03T03:39:36.100Z,1020.67
2022-08-03T03:40:36.984Z,1020.67
2022-08-03T03:41:37.870Z,1020.68
2022-08-03T03:42:38.764Z,1020.70
2022-08-03T03:43:39.600Z,1020.69
2022-08-03T03:44:40.483Z,1020.68
2022-08-03T03:45:41.367Z,1020.68
2022-08-03T03:46:42.198Z,1020.70
2022-08-03T03:47:43.034Z,1020.70
2022-08-03T03:48:43.870Z,1020.68
2022-08-03T03:49:44.697Z,1020.70
2022-08-03T03:50:45.518Z,1020.68
2022-08-03T03:51:46.364Z,1020.68
2022-08-03T03:52:47.211Z,1020.66
2022-08-03T03:53:48.036Z,1020.70
2022-08-03T03:54:48.863Z,1020.68
2022-08-03T03:55:59.333Z,1020.65
2022-08-03T03:56:51.407Z,1020.69
2022-08-03T03:57:51.247Z,1020.66
2022-08-03T03:58:52.073Z,1020.66
2022-08-03T03:59:52.921Z,1020.66
2022-08-03T04:00:53.979Z,1020.66
2022-08-03T04:01:59.307Z,1020.66
2022-08-03T04:02:56.113Z,1020.69
2022-08-03T04:03:55.937Z,1020.70
2022-08-03T04:04:56.759Z,1020.66
2022-08-03T04:05:57.599Z,1020.64
2022-08-03T04:06:58.431Z,1020.72
2022-08-03T04:07:59.268Z,1020.73
2022-08-03T04:09:00.085Z,1020.71
2022-08-03T04:10:00.954Z,1020.71
2022-08-03T04:11:02.627Z,1020.73
2022-08-03T04:12:02.454Z,1020.72
2022-08-03T04:13:03.294Z,1020.71
2022-08-03T04:14:04.123Z,1020.74
2022-08-03T04:15:04.945Z,1020.76
2022-08-03T04:16:05.773Z,1020.76
2022-08-03T04:17:06.595Z,1020.76
2022-08-03T04:18:07.432Z,1020.75
2022-08-03T04:19:08.263Z,1020.79
2022-08-03T04:20:09.091Z,1020.79
2022-08-03T04:21:09.920Z,1020.80
2022-08-03T04:22:10.785Z,1020.79
2022-08-03T04:23:12.840Z,1020.82
2022-08-03T04:24:12.485Z,1020.81
2022-08-03T04:25:13.303Z,1020.82
2022-08-03T04:26:14.131Z,1020.82
2022-08-03T04:27:14.964Z,1020.83
2022-08-03T04:28:29.452Z,1020.81
2022-08-03T04:29:17.513Z,1020.79
2022-08-03T04:30:17.342Z,1020.78
2022-08-03T04:31:18.170Z,1020.75
2022-08-03T04:32:19.232Z,1020.78
2022-08-03T04:33:19.578Z,1020.78
2022-08-03T04:34:20.407Z,1020.75
2022-08-03T04:35:21.237Z,1020.77
2022-08-03T04:36:22.950Z,1020.76
2022-08-03T04:37:22.775Z,1020.78
2022-08-03T04:38:23.623Z,1020.81
2022-08-03T04:39:24.450Z,1020.80
2022-08-03T04:40:25.278Z,1020.80
2022-08-03T04:41:26.060Z,1020.80
2022-08-03T04:42:26.887Z,1020.76
2022-08-03T04:43:27.715Z,1020.78
2022-08-03T04:44:28.825Z,1020.75
2022-08-03T04:45:29.194Z,1020.77
2022-08-03T04:46:30.023Z,1020.78
2022-08-03T04:47:30.840Z,1020.80
2022-08-03T04:48:31.682Z,1020.81
2022-08-03T04:49:32.629Z,1020.81
2022-08-03T04:50:33.438Z,1020.82
2022-08-03T04:51:34.266Z,1020.85
2022-08-03T04:52:35.095Z,1020.87
2022-08-03T04:53:35.738Z,1020.87
2022-08-03T04:54:36.565Z,1020.89
2022-08-03T04:55:37.407Z,1020.88
2022-08-03T04:56:38.222Z,1020.87
2022-08-03T04:57:39.046Z,1020.88
2022-08-03T04:58:39.880Z,1020.86
2022-08-03T04:59:40.937Z,1020.87
2022-08-03T05:00:41.259Z,1020.88
2022-08-03T05:01:42.233Z,1020.84
2022-08-03T05:02:43.049Z,1020.85
2022-08-03T05:03:43.874Z,1020.86
2022-08-03T05:04:44.704Z,1020.86
2022-08-03T05:05:50.275Z,1020.85
2022-08-03T05:06:48.252Z,1020.89
2022-08-03T05:07:46.757Z,1020.89
2022-08-03T05:08:48.896Z,1020.88
2022-08-03T05:09:52.229Z,1020.90
2022-08-03T05:10:48.693Z,1020.89
2022-08-03T05:11:49.512Z,1020.88
2022-08-03T05:12:50.340Z,1020.89
2022-08-03T05:13:51.170Z,1020.90
2022-08-03T05:14:52.003Z,1020.91
2022-08-03T05:15:52.828Z,1020.93
2022-08-03T05:16:53.651Z,1020.93
2022-08-03T05:17:54.472Z,1020.95
2022-08-03T05:18:55.310Z,1020.94
2022-08-03T05:19:56.128Z,1020.94
2022-08-03T05:20:56.957Z,1020.95
2022-08-03T05:21:57.777Z,1020.93
2022-08-03T05:22:58.607Z,1020.92
2022-08-03T05:23:59.444Z,1020.91
2022-08-03T05:25:00.296Z,1020.90
2022-08-03T05:26:01.103Z,1020.91
2022-08-03T05:27:01.931Z,1020.93
2022-08-03T05:28:02.761Z,1020.92
2022-08-03T05:29:03.599Z,1020.94
2022-08-03T05:30:30.993Z,1020.93
2022-08-03T05:31:06.134Z,1020.95
2022-08-03T05:32:08.283Z,1020.92
2022-08-03T05:33:06.761Z,1020.93
2022-08-03T05:34:07.591Z,1020.91
2022-08-03T05:35:56.096Z,1020.92
2022-08-03T05:36:10.135Z,1020.92
2022-08-03T05:37:09.961Z,1020.92
2022-08-03T05:38:10.784Z,1020.91
2022-08-03T05:39:11.619Z,1020.92
2022-08-03T05:40:12.442Z,1020.89
2022-08-03T05:41:22.259Z,1020.89
2022-08-03T05:42:15.236Z,1020.88
2022-08-03T05:43:14.604Z,1020.89
2022-08-03T05:44:15.432Z,1020.89
2022-08-03T05:45:16.264Z,1020.89
2022-08-03T05:46:17.094Z,1020.88
2022-08-03T05:47:17.922Z,1020.89
2022-08-03T05:48:18.720Z,1020.89
2022-08-03T05:49:19.611Z,1020.87
2022-08-03T05:50:20.408Z,1020.88
2022-08-03T05:51:21.237Z,1020.88
2022-08-03T05:52:22.196Z,1020.87
2022-08-03T05:53:22.666Z,1020.87
2022-08-03T05:54:23.505Z,1020.87
2022-08-03T05:55:25.220Z,1020.85
2022-08-03T05:56:25.049Z,1020.86
2022-08-03T05:57:25.869Z,1020.87
2022-08-03T05:58:26.697Z,1020.83
2022-08-03T05:59:37.898Z,1020.80
2022-08-03T06:00:28.983Z,1020.79
2022-08-03T06:01:28.852Z,1020.79
2022-08-03T06:02:29.629Z,1020.75
2022-08-03T06:03:30.449Z,1020.75
2022-08-03T06:04:31.310Z,1020.73
2022-08-03T06:05:32.132Z,1020.71
2022-08-03T06:06:32.961Z,1020.69
2022-08-03T06:07:33.790Z,1020.66
2022-08-03T06:08:34.613Z,1020.69
2022-08-03T06:10:35.525Z,1020.70
2022-08-03T06:10:38.345Z,1020.70
2022-08-03T06:11:36.785Z,1020.69
2022-08-03T06:12:37.609Z,1020.71
2022-08-03T06:13:38.429Z,1020.70
2022-08-03T06:14:39.266Z,1020.69
2022-08-03T06:15:40.087Z,1020.68
2022-08-03T06:16:40.921Z,1020.69
2022-08-03T06:17:41.752Z,1020.69
2022-08-03T06:18:42.604Z,1020.68
2022-08-03T06:19:43.445Z,1020.69
2022-08-03T06:20:44.281Z,1020.68
2022-08-03T06:21:45.096Z,1020.66
2022-08-03T06:22:51.006Z,1020.63
2022-08-03T06:23:54.211Z,1020.64
2022-08-03T06:24:53.796Z,1020.67
2022-08-03T06:25:49.092Z,1020.66
2022-08-03T06:26:48.918Z,1020.71
2022-08-03T06:27:49.739Z,1020.72
2022-08-03T06:28:52.482Z,1020.71
2022-08-03T06:29:51.127Z,1020.71
2022-08-03T06:30:51.969Z,1020.71
2022-08-03T06:31:52.789Z,1020.71
2022-08-03T06:32:53.626Z,1020.70
2022-08-03T06:34:32.917Z,1020.70
2022-08-03T06:34:56.177Z,1020.70
2022-08-03T06:35:55.997Z,1020.69
2022-08-03T06:37:01.678Z,1020.67
2022-08-03T06:37:58.537Z,1020.67
2022-08-03T06:38:58.155Z,1020.68
2022-08-03T06:39:58.977Z,1020.67
2022-08-03T06:40:59.809Z,1020.70
2022-08-03T06:42:00.650Z,1020.65
2022-08-03T06:43:01.465Z,1020.64
2022-08-03T06:44:02.945Z,1020.62
2022-08-03T06:45:03.119Z,1020.61
2022-08-03T06:46:03.938Z,1020.61
2022-08-03T06:47:04.766Z,1020.62
2022-08-03T06:48:05.584Z,1020.63
2022-08-03T06:49:06.513Z,1020.63
2022-08-03T06:50:16.278Z,1020.62
2022-08-03T06:51:09.017Z,1020.65
2022-08-03T06:52:08.834Z,1020.64
2022-08-03T06:53:09.664Z,1020.66
2022-08-03T06:54:11.396Z,1020.65
2022-08-03T06:55:11.225Z,1020.64
2022-08-03T06:56:12.053Z,1020.68
2022-08-03T06:57:12.881Z,1020.69
2022-08-03T06:58:13.711Z,1020.68
2022-08-03T07:00:09.848Z,1020.68
2022-08-03T07:00:16.271Z,1020.67
2022-08-03T07:01:18.498Z,1020.68
2022-08-03T07:02:19.391Z,1020.69
2022-08-03T07:03:17.424Z,1020.64
2022-08-03T07:04:18.269Z,1020.68
2022-08-03T07:05:19.100Z,1020.68
2022-08-03T07:06:19.925Z,1020.67
2022-08-03T07:07:20.835Z,1020.66
2022-08-03T07:08:33.840Z,1020.66
2022-08-03T07:09:23.318Z,1020.68
2022-08-03T07:10:23.150Z,1020.69
2022-08-03T07:11:23.988Z,1020.67
2022-08-03T07:12:24.817Z,1020.63
2022-08-03T07:13:25.644Z,1020.63
2022-08-03T07:14:26.495Z,1020.65
2022-08-03T07:15:54.450Z,1020.63
2022-08-03T07:16:29.045Z,1020.61
2022-08-03T07:17:28.867Z,1020.60
2022-08-03T07:18:30.230Z,1020.59
2022-08-03T07:19:30.507Z,1020.62
2022-08-03T07:20:32.694Z,1020.58
2022-08-03T07:21:32.013Z,1020.55
2022-08-03T07:22:32.837Z,1020.56
2022-08-03T07:23:33.663Z,1020.50
2022-08-03T07:24:34.503Z,1020.50
2022-08-03T07:25:35.332Z,1020.49
2022-08-03T07:26:35.993Z,1020.49
2022-08-03T07:27:36.766Z,1020.46
2022-08-03T07:28:37.584Z,1020.46
2022-08-03T07:29:38.421Z,1020.47
2022-08-03T07:30:39.252Z,1020.44
2022-08-03T07:31:40.083Z,1020.49
2022-08-03T07:32:49.778Z,1020.48
2022-08-03T07:33:42.627Z,1020.45
2022-08-03T07:34:42.456Z,1020.40
2022-08-03T07:35:43.283Z,1020.37
2022-08-03T07:36:44.118Z,1020.37
2022-08-03T07:37:46.161Z,1020.37
2022-08-03T07:38:46.659Z,1020.37
2022-08-03T07:39:46.496Z,1020.33
2022-08-03T07:40:47.317Z,1020.31
2022-08-03T07:41:48.155Z,1020.32
2022-08-03T07:42:52.140Z,1020.33
2022-08-03T07:43:49.794Z,1020.36
2022-08-03T07:44:50.623Z,1020.34
2022-08-03T07:45:51.451Z,1020.34
2022-08-03T07:46:52.272Z,1020.32
2022-08-03T07:47:53.811Z,1020.35
2022-08-03T07:48:53.851Z,1020.37
2022-08-03T07:49:54.644Z,1020.34
2022-08-03T07:50:55.463Z,1020.33
2022-08-03T07:51:56.292Z,1020.33
2022-08-03T07:52:57.111Z,1020.31
2022-08-03T07:53:57.939Z,1020.33
2022-08-03T07:54:58.769Z,1020.35
2022-08-03T07:55:59.597Z,1020.33
2022-08-03T07:57:00.100Z,1020.33
2022-08-03T07:58:00.928Z,1020.28
2022-08-03T07:59:01.758Z,1020.30
2022-08-03T08:00:02.909Z,1020.31
2022-08-03T08:01:03.454Z,1020.30
2022-08-03T08:02:04.264Z,1020.27
2022-08-03T08:03:05.082Z,1020.27
2022-08-03T08:04:05.916Z,1020.28
2022-08-03T08:05:06.748Z,1020.25
2022-08-03T08:06:07.578Z,1020.26
2022-08-03T08:07:08.394Z,1020.26
2022-08-03T08:08:08.903Z,1020.27
2022-08-03T08:09:09.729Z,1020.23
2022-08-03T08:10:10.569Z,1020.23
2022-08-03T08:11:11.386Z,1020.22
2022-08-03T08:12:15.748Z,1020.20
2022-08-03T08:13:12.887Z,1020.19
2022-08-03T08:14:13.714Z,1020.20
2022-08-03T08:15:14.553Z,1020.20
2022-08-03T08:16:15.382Z,1020.16
2022-08-03T08:17:16.212Z,1020.17
2022-08-03T08:18:17.043Z,1020.13
2022-08-03T08:19:17.870Z,1020.14
2022-08-03T08:20:27.649Z,1020.14
2022-08-03T08:21:20.492Z,1020.10
2022-08-03T08:22:29.947Z,1020.09
2022-08-03T08:23:42.670Z,1020.06
2022-08-03T08:24:22.699Z,1020.09
2022-08-03T08:25:22.450Z,1020.08
2022-08-03T08:26:23.277Z,1020.05
2022-08-03T08:27:24.096Z,1020.09
2022-08-03T08:28:32.682Z,1020.10
2022-08-03T08:29:26.641Z,1020.08
2022-08-03T08:30:26.477Z,1020.09
2022-08-03T08:31:27.014Z,1020.07
2022-08-03T08:32:27.836Z,1020.07
2022-08-03T08:33:37.620Z,1020.03
2022-08-03T08:34:30.416Z,1020.02
2022-08-03T08:35:30.179Z,1020.01
2022-08-03T08:36:31.056Z,1019.99
2022-08-03T08:37:31.844Z,1019.97
2022-08-03T08:38:32.670Z,1020.03
2022-08-03T08:39:33.490Z,1020.01
2022-08-03T08:40:34.330Z,1020.03
2022-08-03T08:41:35.157Z,1020.06
2022-08-03T08:42:36.009Z,1020.06
2022-08-03T08:43:36.816Z,1020.02
2022-08-03T08:44:37.646Z,1020.00
2022-08-03T08:45:38.475Z,1020.02
2022-08-03T08:46:39.303Z,1020.01
2022-08-03T08:47:50.933Z,1020.01
2022-08-03T08:48:41.842Z,1020.03
2022-08-03T08:49:53.426Z,1020.02
2022-08-03T08:50:43.389Z,1020.02
2022-08-03T08:51:50.953Z,1020.00
2022-08-03T08:52:44.923Z,1020.00
2022-08-03T08:53:44.751Z,1019.99
2022-08-03T08:54:45.580Z,1019.97
2022-08-03T08:55:58.390Z,1019.98
2022-08-03T08:56:48.136Z,1019.98
2022-08-03T08:57:47.953Z,1019.97
2022-08-03T08:58:48.782Z,1019.96
2022-08-03T08:59:51.587Z,1019.96
2022-08-03T09:00:51.388Z,1019.97
2022-08-03T09:01:51.191Z,1019.97
2022-08-03T09:02:52.013Z,1019.96
2022-08-03T09:03:52.835Z,1019.95
2022-08-03T09:04:53.670Z,1019.95
2022-08-03T09:05:56.056Z,1019.95
2022-08-03T09:07:17.992Z,1019.95
2022-08-03T09:07:56.839Z,1019.93
2022-08-03T09:08:56.687Z,1019.93
2022-08-03T09:10:12.312Z,1019.93
2022-08-03T09:10:59.247Z,1019.92
2022-08-03T09:12:20.025Z,1019.92
2022-08-03T09:13:00.772Z,1019.91
2022-08-03T09:14:00.592Z,1019.91
2022-08-03T09:15:16.482Z,1019.92
2022-08-03T09:16:03.157Z,1019.91
2022-08-03T09:17:02.988Z,1019.91
2022-08-03T09:18:03.807Z,1019.91
2022-08-03T09:19:04.635Z,1019.89
2022-08-03T09:20:05.486Z,1019.88
2022-08-03T09:21:24.201Z,1019.91
2022-08-03T09:22:08.027Z,1019.90
2022-08-03T09:23:24.994Z,1019.90
2022-08-03T09:24:16.691Z,1019.91
2022-08-03T09:25:23.754Z,1019.90
2022-08-03T09:26:11.034Z,1019.92
2022-08-03T09:27:10.864Z,1019.91
2022-08-03T09:28:11.687Z,1019.90
2022-08-03T09:29:15.262Z,1019.89
2022-08-03T09:30:33.901Z,1019.89
2022-08-03T09:31:15.020Z,1019.88
2022-08-03T09:32:14.992Z,1019.87
2022-08-03T09:33:15.748Z,1019.86
2022-08-03T09:34:16.750Z,1019.84
2022-08-03T09:35:27.890Z,1019.84
2022-08-03T09:36:18.834Z,1019.84
2022-08-03T09:37:19.049Z,1019.85
2022-08-03T09:38:19.492Z,1019.86
2022-08-03T09:39:40.923Z,1019.84
2022-08-03T09:40:22.062Z,1019.86
2022-08-03T09:41:21.892Z,1019.86
2022-08-03T09:42:23.992Z,1019.86
2022-08-03T09:43:23.396Z,1019.88
2022-08-03T09:44:25.986Z,1019.88
2022-08-03T09:45:24.982Z,1019.85
2022-08-03T09:46:25.811Z,1019.86
2022-08-03T09:47:28.289Z,1019.86
2022-08-03T09:48:27.223Z,1019.86
2022-08-03T09:49:28.120Z,1019.85
2022-08-03T09:50:28.918Z,1019.84
2022-08-03T09:51:33.179Z,1019.84
2022-08-03T09:52:49.818Z,1019.84
2022-08-03T09:53:32.176Z,1019.84
2022-08-03T09:54:31.995Z,1019.84
2022-08-03T09:56:35.605Z,1019.84
2022-08-03T09:56:37.147Z,1019.86
2022-08-03T09:57:34.492Z,1019.84
2022-08-03T09:58:35.320Z,1019.83
2022-08-03T09:59:36.150Z,1019.83
2022-08-03T10:00:36.918Z,1019.84
2022-08-03T10:01:37.754Z,1019.82
2022-08-03T10:02:38.530Z,1019.80
2022-08-03T10:04:03.138Z,1019.82
2022-08-03T10:04:41.074Z,1019.79
2022-08-03T10:05:40.919Z,1019.80
2022-08-03T10:06:41.749Z,1019.76
2022-08-03T10:07:46.191Z,1019.75
2022-08-03T10:08:43.104Z,1019.73
2022-08-03T10:09:43.924Z,1019.72
2022-08-03T10:10:44.775Z,1019.71
2022-08-03T10:11:45.609Z,1019.71
2022-08-03T10:12:46.439Z,1019.71
2022-08-03T10:13:47.254Z,1019.70
2022-08-03T10:14:48.087Z,1019.68
2022-08-03T10:16:23.717Z,1019.69
2022-08-03T10:16:50.627Z,1019.68
2022-08-03T10:17:50.447Z,1019.67
2022-08-03T10:18:51.275Z,1019.68
2022-08-03T10:19:52.094Z,1019.67
2022-08-03T10:20:53.047Z,1019.66
2022-08-03T10:21:53.444Z,1019.64
2022-08-03T10:22:54.272Z,1019.64
2022-08-03T10:23:55.106Z,1019.63
2022-08-03T10:24:55.931Z,1019.62
2022-08-03T10:25:56.764Z,1019.61
2022-08-03T10:26:57.597Z,1019.61
2022-08-03T10:27:58.411Z,1019.60
2022-08-03T10:28:59.241Z,1019.59
2022-08-03T10:30:00.063Z,1019.60
2022-08-03T10:31:00.898Z,1019.59
2022-08-03T10:32:01.719Z,1019.60
2022-08-03T10:33:02.546Z,1019.58
2022-08-03T10:34:03.375Z,1019.57
2022-08-03T10:35:19.645Z,1019.58
2022-08-03T10:36:05.935Z,1019.58
2022-08-03T10:37:05.757Z,1019.59
2022-08-03T10:38:06.577Z,1019.56
2022-08-03T10:39:16.024Z,1019.54
2022-08-03T10:40:09.122Z,1019.58
2022-08-03T10:41:08.960Z,1019.54
2022-08-03T10:42:14.612Z,1019.55
2022-08-03T10:43:11.495Z,1019.55
2022-08-03T10:44:11.330Z,1019.53
2022-08-03T10:45:12.153Z,1019.52
2022-08-03T10:46:12.992Z,1019.53
2022-08-03T10:47:13.932Z,1019.52
2022-08-03T10:48:14.721Z,1019.50
2022-08-03T10:49:15.568Z,1019.47
2022-08-03T10:50:16.370Z,1019.48
2022-08-03T10:51:17.210Z,1019.48
2022-08-03T10:52:31.960Z,1019.42
2022-08-03T10:53:20.134Z,1019.41
2022-08-03T10:54:19.423Z,1019.42
2022-08-03T10:55:20.014Z,1019.39
2022-08-03T10:56:35.375Z,1019.41
2022-08-03T10:57:22.343Z,1019.43
2022-08-03T10:58:30.533Z,1019.37
2022-08-03T10:59:28.024Z,1019.39
2022-08-03T11:00:23.613Z,1019.38
2022-08-03T11:01:24.472Z,1019.37
2022-08-03T11:02:26.126Z,1019.37
2022-08-03T11:03:25.953Z,1019.35
2022-08-03T11:04:26.776Z,1019.35
2022-08-03T11:05:27.602Z,1019.37
2022-08-03T11:06:28.439Z,1019.38
2022-08-03T11:07:30.153Z,1019.39
2022-08-03T11:08:29.975Z,1019.40
2022-08-03T11:09:30.811Z,1019.38
2022-08-03T11:10:31.642Z,1019.39
2022-08-03T11:11:32.476Z,1019.36
2022-08-03T11:12:33.307Z,1019.40
2022-08-03T11:13:34.240Z,1019.36
2022-08-03T11:14:34.997Z,1019.38
2022-08-03T11:15:35.825Z,1019.39
2022-08-03T11:16:36.660Z,1019.39
2022-08-03T11:17:46.807Z,1019.36
2022-08-03T11:18:39.205Z,1019.37
2022-08-03T11:19:39.034Z,1019.37
2022-08-03T11:20:40.749Z,1019.34
2022-08-03T11:21:40.587Z,1019.36
2022-08-03T11:22:41.407Z,1019.37
2022-08-03T11:24:03.048Z,1019.37
2022-08-03T11:24:43.951Z,1019.36
2022-08-03T11:25:53.489Z,1019.37
2022-08-03T11:26:45.511Z,1019.37
2022-08-03T11:27:45.341Z,1019.36
2022-08-03T11:28:46.162Z,1019.35
2022-08-03T11:29:46.990Z,1019.34
2022-08-03T11:30:47.820Z,1019.33
2022-08-03T11:31:50.700Z,1019.32
2022-08-03T11:32:49.325Z,1019.30
2022-08-03T11:33:50.153Z,1019.26
2022-08-03T11:34:50.976Z,1019.28
2022-08-03T11:35:51.802Z,1019.27
2022-08-03T11:36:52.643Z,1019.25
2022-08-03T11:38:02.446Z,1019.25
2022-08-03T11:38:55.186Z,1019.27
2022-08-03T11:39:55.014Z,1019.25
2022-08-03T11:40:55.843Z,1019.23
2022-08-03T11:41:56.681Z,1019.22
2022-08-03T11:42:57.513Z,1019.20
2022-08-03T11:43:58.341Z,1019.21
2022-08-03T11:44:58.912Z,1019.22
2022-08-03T11:45:59.742Z,1019.22
2022-08-03T11:47:00.572Z,1019.23
2022-08-03T11:48:01.400Z,1019.23
2022-08-03T11:49:05.352Z,1019.22
2022-08-03T11:50:03.937Z,1019.25
2022-08-03T11:51:03.757Z,1019.23
2022-08-03T11:52:04.594Z,1019.24
2022-08-03T11:53:05.414Z,1019.23
2022-08-03T11:54:06.243Z,1019.22
2022-08-03T11:55:07.063Z,1019.25
2022-08-03T11:56:12.916Z,1019.26
2022-08-03T11:57:09.614Z,1019.27
2022-08-03T11:59:02.706Z,1019.28
2022-08-03T11:59:20.021Z,1019.29
2022-08-03T12:00:11.872Z,1019.26
2022-08-03T12:01:11.702Z,1019.27
2022-08-03T12:02:12.532Z,1019.20
2022-08-03T12:03:13.456Z,1019.25
2022-08-03T12:04:14.219Z,1019.21
2022-08-03T12:05:15.045Z,1019.22
2022-08-03T12:06:15.868Z,1019.25
2022-08-03T12:07:24.482Z,1019.20
2022-08-03T12:08:18.452Z,1019.21
2022-08-03T12:09:18.275Z,1019.19
2022-08-03T12:10:19.148Z,1019.22
2022-08-03T12:11:19.973Z,1019.20
2022-08-03T12:12:20.828Z,1019.21
2022-08-03T12:14:44.636Z,1019.20
2022-08-03T12:14:48.492Z,1019.19
2022-08-03T12:15:23.972Z,1019.19